Time;durP1;ratioP1;P1;durP2;ratioP2;P2;SDS_P1;SDS_P2;PMS_P1;PMS_P2;Temp;Humidity;BMP_temperature;BMP_pressure;BME280_temperature;BME280_humidity;BME280_pressure;Samples;Min_cycle;Max_cycle;Signal;HPM_P1;HPM_P2
2021/07/31 00:01:05;;;;;;;;;;;18.70;67.00;;;;;;5056819;28;19970;-76
2021/07/31 00:03:32;;;;;;;;;;;18.60;67.10;;;;;;5056387;28;19925;-76
2021/07/31 00:05:58;;;;;;;;;;;18.60;67.20;;;;;;5056287;28;19987;-76
2021/07/31 00:08:24;;;;;;;;;;;18.60;67.40;;;;;;5056351;28;19925;-76
2021/07/31 00:10:50;;;;;;;;;;;18.50;67.50;;;;;;5056984;28;20012;-76
2021/07/31 00:13:17;;;;;;;;;;;18.50;67.60;;;;;;5056318;28;20383;-76
2021/07/31 00:15:43;;;;;;;;;;;18.40;67.70;;;;;;5056209;28;20007;-76
2021/07/31 00:18:10;;;;;;;;;;;18.50;67.80;;;;;;5055949;28;19932;-76
2021/07/31 00:20:37;;;;;;;;;;;18.40;67.70;;;;;;5054849;28;20395;-76
2021/07/31 00:23:03;;;;;;;;;;;18.40;67.70;;;;;;5055946;28;19931;-76
2021/07/31 00:25:29;;;;;;;;;;;18.40;67.70;;;;;;5056487;28;20466;-76
2021/07/31 00:27:55;;;;;;;;;;;18.40;67.70;;;;;;5055639;28;20391;-76
2021/07/31 00:30:24;;;;;;;;;;;18.40;67.80;;;;;;5055568;28;19971;-76
2021/07/31 00:32:50;;;;;;;;;;;18.30;67.90;;;;;;5055924;28;20021;-76
2021/07/31 00:35:17;;;;;;;;;;;18.30;67.90;;;;;;5055785;28;20078;-76
2021/07/31 00:37:43;;;;;;;;;;;18.30;68.30;;;;;;5055135;28;19987;-76
2021/07/31 00:40:09;;;;;;;;;;;18.30;68.00;;;;;;5037488;28;20430;-76
2021/07/31 00:42:42;;;;;;;;;;;18.30;68.10;;;;;;5055680;28;19925;-76
2021/07/31 00:45:09;;;;;;;;;;;18.30;68.30;;;;;;5055963;28;19924;-76
2021/07/31 00:47:36;;;;;;;;;;;18.20;68.20;;;;;;5055801;28;19925;-76
2021/07/31 00:50:03;;;;;;;;;;;18.30;68.30;;;;;;5055929;28;19925;-76
2021/07/31 00:52:29;;;;;;;;;;;18.30;68.30;;;;;;5055704;28;19928;-76
2021/07/31 00:54:55;;;;;;;;;;;18.20;68.30;;;;;;5055374;28;20443;-76
2021/07/31 00:57:22;;;;;;;;;;;18.20;68.30;;;;;;5055666;28;19931;-76
2021/07/31 00:59:49;;;;;;;;;;;18.20;68.40;;;;;;5055294;28;20304;-76
2021/07/31 01:02:15;;;;;;;;;;;18.30;68.50;;;;;;5055254;28;19925;-76
2021/07/31 01:04:43;;;;;;;;;;;18.30;68.50;;;;;;5055167;28;20285;-76
2021/07/31 01:07:11;;;;;;;;;;;18.30;68.60;;;;;;5055015;28;20015;-76
2021/07/31 01:09:38;;;;;;;;;;;18.30;68.60;;;;;;5055379;28;20326;-76
2021/07/31 01:12:06;;;;;;;;;;;18.30;68.60;;;;;;5055497;28;19932;-76
2021/07/31 01:14:33;;;;;;;;;;;18.30;68.60;;;;;;5055374;28;19924;-76
2021/07/31 01:16:59;;;;;;;;;;;18.30;68.80;;;;;;5054866;28;19947;-76
2021/07/31 01:19:25;;;;;;;;;;;18.30;68.80;;;;;;5055142;28;19925;-76
2021/07/31 01:21:51;;;;;;;;;;;18.30;68.80;;;;;;5039234;28;19976;-76
2021/07/31 01:24:17;;;;;;;;;;;18.30;68.90;;;;;;5035037;28;19925;-76
2021/07/31 01:26:45;;;;;;;;;;;18.30;68.90;;;;;;5035317;28;19925;-76
2021/07/31 01:29:12;;;;;;;;;;;18.30;68.90;;;;;;5034310;28;19932;-76
2021/07/31 01:31:39;;;;;;;;;;;18.30;69.00;;;;;;5034834;28;20019;-76
2021/07/31 01:34:05;;;;;;;;;;;18.20;69.10;;;;;;5034896;28;20422;-76
2021/07/31 01:36:31;;;;;;;;;;;18.20;69.20;;;;;;5034743;28;19932;-76
2021/07/31 01:38:58;;;;;;;;;;;18.20;69.30;;;;;;5034904;28;20011;-76
2021/07/31 01:41:24;;;;;;;;;;;18.20;69.40;;;;;;5035249;28;19932;-76
2021/07/31 01:43:51;;;;;;;;;;;18.20;69.40;;;;;;5034635;28;19966;-76
2021/07/31 01:46:17;;;;;;;;;;;18.20;69.50;;;;;;5034831;28;19948;-76
2021/07/31 01:48:44;;;;;;;;;;;18.20;69.60;;;;;;5035056;28;19925;-76
2021/07/31 01:51:10;;;;;;;;;;;18.20;69.70;;;;;;5034439;28;20304;-76
2021/07/31 01:53:37;;;;;;;;;;;18.20;69.70;;;;;;5034759;28;20010;-76
2021/07/31 01:56:03;;;;;;;;;;;18.20;69.80;;;;;;5034765;28;19964;-76
2021/07/31 01:58:29;;;;;;;;;;;18.20;69.90;;;;;;5034330;28;20601;-76
2021/07/31 02:00:56;;;;;;;;;;;18.20;70.00;;;;;;5034193;28;20325;-76
2021/07/31 02:03:22;;;;;;;;;;;18.20;70.00;;;;;;5034626;28;20067;-76
2021/07/31 02:05:48;;;;;;;;;;;18.20;70.20;;;;;;5043752;28;19966;-76
2021/07/31 02:08:15;;;;;;;;;;;18.20;70.20;;;;;;5035730;28;20007;-76
2021/07/31 02:10:41;;;;;;;;;;;18.20;70.20;;;;;;5034364;28;20427;-76
2021/07/31 02:13:07;;;;;;;;;;;18.20;70.20;;;;;;5033780;28;19932;-76
2021/07/31 02:15:33;;;;;;;;;;;18.20;70.40;;;;;;5033847;28;20412;-76
2021/07/31 02:17:59;;;;;;;;;;;18.20;70.50;;;;;;5034144;28;19925;-76
2021/07/31 02:20:25;;;;;;;;;;;18.20;70.40;;;;;;5042895;28;19970;-76
2021/07/31 02:22:52;;;;;;;;;;;18.20;70.50;;;;;;5053988;28;20008;-76
2021/07/31 02:25:18;;;;;;;;;;;18.20;70.50;;;;;;5053947;28;19925;-76
2021/07/31 02:27:45;;;;;;;;;;;18.20;70.50;;;;;;5035564;28;19932;-76
2021/07/31 02:30:11;;;;;;;;;;;18.20;70.60;;;;;;5053867;28;19925;-76
2021/07/31 02:32:37;;;;;;;;;;;18.20;70.70;;;;;;5035625;28;19929;-76
2021/07/31 02:35:04;;;;;;;;;;;18.20;70.80;;;;;;5053615;28;19925;-76
2021/07/31 02:37:30;;;;;;;;;;;18.20;70.70;;;;;;5053849;28;20007;-76
2021/07/31 02:39:56;;;;;;;;;;;18.20;70.80;;;;;;5053969;28;19960;-76
2021/07/31 02:42:22;;;;;;;;;;;18.10;70.70;;;;;;5053231;28;20031;-76
2021/07/31 02:44:48;;;;;;;;;;;18.10;70.80;;;;;;5053212;28;20386;-76
2021/07/31 02:47:14;;;;;;;;;;;18.10;70.80;;;;;;5053043;28;19975;-76
2021/07/31 02:49:41;;;;;;;;;;;18.10;70.80;;;;;;5052596;28;19933;-76
2021/07/31 02:52:07;;;;;;;;;;;18.10;70.80;;;;;;5052972;28;20418;-76
2021/07/31 02:54:33;;;;;;;;;;;18.10;70.90;;;;;;5053172;28;19932;-76
2021/07/31 02:56:59;;;;;;;;;;;18.10;70.90;;;;;;5053152;28;19998;-76
2021/07/31 02:59:25;;;;;;;;;;;18.10;70.90;;;;;;5053079;28;19925;-76
2021/07/31 03:01:51;;;;;;;;;;;18.00;71.00;;;;;;5053624;28;20141;-76
2021/07/31 03:04:17;;;;;;;;;;;18.00;71.00;;;;;;5052501;28;19924;-76
2021/07/31 03:06:43;;;;;;;;;;;18.00;71.00;;;;;;5052662;28;20356;-76
2021/07/31 03:09:10;;;;;;;;;;;18.00;71.20;;;;;;5052588;28;19924;-76
2021/07/31 03:11:36;;;;;;;;;;;18.00;71.20;;;;;;5052600;28;20062;-76
2021/07/31 03:14:02;;;;;;;;;;;18.00;71.30;;;;;;5053242;28;19929;-76
2021/07/31 03:16:28;;;;;;;;;;;18.00;71.30;;;;;;5052507;28;20014;-76
2021/07/31 03:18:54;;;;;;;;;;;17.90;71.40;;;;;;5052975;28;20360;-76
2021/07/31 03:21:21;;;;;;;;;;;17.90;71.40;;;;;;5052615;28;20365;-76
2021/07/31 03:23:47;;;;;;;;;;;17.90;71.40;;;;;;5052078;28;19931;-76
2021/07/31 03:26:13;;;;;;;;;;;17.90;71.50;;;;;;5051889;28;19975;-76
2021/07/31 03:28:39;;;;;;;;;;;17.90;71.50;;;;;;5052665;28;20356;-76
2021/07/31 03:31:05;;;;;;;;;;;17.90;71.60;;;;;;5052828;28;20017;-76
2021/07/31 03:33:31;;;;;;;;;;;17.90;71.60;;;;;;5052795;28;19960;-79
2021/07/31 03:35:57;;;;;;;;;;;17.90;71.70;;;;;;5052600;28;19929;-76
2021/07/31 03:38:24;;;;;;;;;;;17.90;71.70;;;;;;5052868;28;19936;-76
2021/07/31 03:40:51;;;;;;;;;;;17.90;71.70;;;;;;5052649;28;19948;-76
2021/07/31 03:43:18;;;;;;;;;;;17.90;71.80;;;;;;5052557;28;19929;-76
2021/07/31 03:45:44;;;;;;;;;;;17.80;71.70;;;;;;5052900;28;20013;-76
2021/07/31 03:48:10;;;;;;;;;;;17.80;71.90;;;;;;5052941;28;20209;-76
2021/07/31 03:50:40;;;;;;;;;;;17.80;71.90;;;;;;5052576;28;19928;-76
2021/07/31 03:53:06;;;;;;;;;;;17.80;72.00;;;;;;5052660;28;19964;-76
2021/07/31 03:55:32;;;;;;;;;;;17.80;72.00;;;;;;5051595;28;20388;-76
2021/07/31 03:57:58;;;;;;;;;;;17.80;71.90;;;;;;5052666;28;20103;-76
2021/07/31 04:00:24;;;;;;;;;;;17.80;71.80;;;;;;5052768;28;19924;-76
2021/07/31 04:02:51;;;;;;;;;;;17.80;71.80;;;;;;5052455;28;19933;-76
2021/07/31 04:05:17;;;;;;;;;;;17.80;71.70;;;;;;5052356;28;20390;-76
2021/07/31 04:07:43;;;;;;;;;;;17.80;71.70;;;;;;5052559;28;20001;-76
2021/07/31 04:10:09;;;;;;;;;;;17.90;71.70;;;;;;5052385;28;19975;-76
2021/07/31 04:12:36;;;;;;;;;;;17.80;71.60;;;;;;5052705;28;19929;-76
2021/07/31 04:15:02;;;;;;;;;;;17.90;71.60;;;;;;5052348;28;19925;-76
2021/07/31 04:17:28;;;;;;;;;;;17.80;71.60;;;;;;5034705;28;19947;-76
2021/07/31 04:19:54;;;;;;;;;;;17.90;71.70;;;;;;5051814;28;20051;-76
2021/07/31 04:22:21;;;;;;;;;;;17.90;71.60;;;;;;5034335;28;19929;-76
2021/07/31 04:24:47;;;;;;;;;;;17.80;71.60;;;;;;5052192;28;19939;-78
2021/07/31 04:27:13;;;;;;;;;;;17.90;71.70;;;;;;5052009;28;20411;-76
2021/07/31 04:29:40;;;;;;;;;;;17.80;71.60;;;;;;5052248;28;19972;-76
2021/07/31 04:32:06;;;;;;;;;;;17.80;71.60;;;;;;5052368;28;19932;-76
2021/07/31 04:34:32;;;;;;;;;;;17.90;71.60;;;;;;5051765;28;20395;-76
2021/07/31 04:36:58;;;;;;;;;;;17.90;71.60;;;;;;5052117;28;20412;-76
2021/07/31 04:39:24;;;;;;;;;;;17.80;71.50;;;;;;5055781;28;19979;-76
2021/07/31 04:41:50;;;;;;;;;;;17.90;71.70;;;;;;5055999;28;19925;-76
2021/07/31 04:44:17;;;;;;;;;;;17.90;71.70;;;;;;5054865;28;20323;-76
2021/07/31 04:46:43;;;;;;;;;;;17.80;71.60;;;;;;5055309;28;19925;-77
2021/07/31 04:49:09;;;;;;;;;;;17.80;71.60;;;;;;5055896;28;19975;-76
2021/07/31 04:51:35;;;;;;;;;;;17.80;71.60;;;;;;5055820;28;19932;-76
2021/07/31 04:54:01;;;;;;;;;;;17.80;71.60;;;;;;5055853;28;19936;-76
2021/07/31 04:56:27;;;;;;;;;;;17.80;71.70;;;;;;5055254;28;20380;-76
2021/07/31 04:58:54;;;;;;;;;;;17.80;71.70;;;;;;5055995;28;19976;-76
2021/07/31 05:01:20;;;;;;;;;;;17.80;71.80;;;;;;5055591;28;19929;-76
2021/07/31 05:03:46;;;;;;;;;;;17.80;71.90;;;;;;5055398;28;20579;-76
2021/07/31 05:06:12;;;;;;;;;;;17.80;71.90;;;;;;5055295;28;19983;-76
2021/07/31 05:08:38;;;;;;;;;;;17.80;71.90;;;;;;5054870;28;20022;-76
2021/07/31 05:11:06;;;;;;;;;;;17.80;71.90;;;;;;5055249;28;19968;-76
2021/07/31 05:13:32;;;;;;;;;;;17.80;71.80;;;;;;5045028;28;19971;-76
2021/07/31 05:15:58;;;;;;;;;;;17.80;71.80;;;;;;5055228;28;19929;-76
2021/07/31 05:18:24;;;;;;;;;;;17.80;71.80;;;;;;5053706;28;19936;-76
2021/07/31 05:20:50;;;;;;;;;;;17.80;71.90;;;;;;5054979;28;19924;-76
2021/07/31 05:23:16;;;;;;;;;;;17.70;71.90;;;;;;5054876;28;19932;-76
2021/07/31 05:25:44;;;;;;;;;;;17.80;71.90;;;;;;5055384;28;19929;-77
2021/07/31 05:28:13;;;;;;;;;;;17.70;71.90;;;;;;5054976;28;19925;-76
2021/07/31 05:30:40;;;;;;;;;;;17.80;71.90;;;;;;5054940;28;19936;-76
2021/07/31 05:33:06;;;;;;;;;;;17.70;71.80;;;;;;5054752;28;19966;-76
2021/07/31 05:35:32;;;;;;;;;;;17.70;71.80;;;;;;5054688;28;19925;-76
2021/07/31 05:37:59;;;;;;;;;;;17.80;71.80;;;;;;5054939;28;20019;-76
2021/07/31 05:40:25;;;;;;;;;;;17.80;71.90;;;;;;5054910;28;20091;-76
2021/07/31 05:42:51;;;;;;;;;;;17.80;71.90;;;;;;5054476;28;19928;-76
2021/07/31 05:45:17;;;;;;;;;;;17.80;71.90;;;;;;5054685;28;19929;-76
2021/07/31 05:47:43;;;;;;;;;;;17.80;71.90;;;;;;5054561;28;19978;-76
2021/07/31 05:50:09;;;;;;;;;;;17.80;71.90;;;;;;5053720;28;19924;-76
2021/07/31 05:52:36;;;;;;;;;;;17.80;71.90;;;;;;5054192;28;19925;-76
2021/07/31 05:55:03;;;;;;;;;;;17.80;71.80;;;;;;5054765;28;20015;-76
2021/07/31 05:57:29;;;;;;;;;;;17.80;71.80;;;;;;5054594;28;19982;-76
2021/07/31 05:59:56;;;;;;;;;;;17.80;71.60;;;;;;5052952;28;20407;-76
2021/07/31 06:02:22;;;;;;;;;;;17.80;71.70;;;;;;5054268;28;20409;-76
2021/07/31 06:04:48;;;;;;;;;;;17.80;71.60;;;;;;5054056;28;19929;-76
2021/07/31 06:07:14;;;;;;;;;;;17.80;71.70;;;;;;5054143;28;19983;-76
2021/07/31 06:09:41;;;;;;;;;;;17.80;71.70;;;;;;5054171;28;20249;-76
2021/07/31 06:12:08;;;;;;;;;;;17.80;71.60;;;;;;5054166;28;20403;-76
2021/07/31 06:14:35;;;;;;;;;;;17.80;71.60;;;;;;5053860;28;20003;-76
2021/07/31 06:17:02;;;;;;;;;;;17.80;71.70;;;;;;5053769;28;19929;-76
2021/07/31 06:19:29;;;;;;;;;;;17.80;71.70;;;;;;5053289;28;19932;-76
2021/07/31 06:21:56;;;;;;;;;;;17.80;71.70;;;;;;5052864;28;19956;-76
2021/07/31 06:24:22;;;;;;;;;;;17.90;71.70;;;;;;5053317;28;20405;-76
2021/07/31 06:26:48;;;;;;;;;;;17.80;71.60;;;;;;5052909;28;19975;-76
2021/07/31 06:29:15;;;;;;;;;;;17.90;71.60;;;;;;5052860;28;20376;-75
2021/07/31 06:31:41;;;;;;;;;;;17.90;71.60;;;;;;5052954;28;20063;-76
2021/07/31 06:34:07;;;;;;;;;;;17.90;71.50;;;;;;5052169;28;19925;-76
2021/07/31 06:36:34;;;;;;;;;;;17.90;71.50;;;;;;5052424;28;19979;-77
2021/07/31 06:39:01;;;;;;;;;;;17.90;71.50;;;;;;5052717;28;19975;-76
2021/07/31 06:41:27;;;;;;;;;;;17.90;71.50;;;;;;5067274;28;19928;-76
2021/07/31 06:43:57;;;;;;;;;;;17.90;71.50;;;;;;5052737;28;20425;-76
2021/07/31 06:46:24;;;;;;;;;;;17.90;71.60;;;;;;5051840;28;20058;-76
2021/07/31 06:48:50;;;;;;;;;;;17.90;71.60;;;;;;5066862;28;19971;-75
2021/07/31 06:51:19;;;;;;;;;;;17.90;71.50;;;;;;5052356;28;19975;-76
2021/07/31 06:53:48;;;;;;;;;;;17.90;71.50;;;;;;5052467;28;19925;-76
2021/07/31 06:56:15;;;;;;;;;;;18.00;71.60;;;;;;5051854;28;20453;-76
2021/07/31 06:58:41;;;;;;;;;;;18.00;71.70;;;;;;5050508;28;19929;-76
2021/07/31 07:01:07;;;;;;;;;;;18.00;71.60;;;;;;5052918;28;20021;-76
2021/07/31 07:03:33;;;;;;;;;;;18.00;71.50;;;;;;5053283;28;20379;-76
2021/07/31 07:06:02;;;;;;;;;;;18.00;71.60;;;;;;5034035;28;20007;-76
2021/07/31 07:08:28;;;;;;;;;;;18.00;71.50;;;;;;5051946;28;20022;-76
2021/07/31 07:10:54;;;;;;;;;;;18.10;71.70;;;;;;5052163;28;20360;-77
2021/07/31 07:13:20;;;;;;;;;;;18.10;71.70;;;;;;5051830;28;19925;-75
2021/07/31 07:15:46;;;;;;;;;;;18.10;71.70;;;;;;5050978;28;19987;-75
2021/07/31 07:18:12;;;;;;;;;;;18.20;71.70;;;;;;5051496;28;19928;-74
2021/07/31 07:20:39;;;;;;;;;;;18.20;71.50;;;;;;5051595;28;20356;-74
2021/07/31 07:23:05;;;;;;;;;;;18.20;71.30;;;;;;5051161;28;20372;-73
2021/07/31 07:25:31;;;;;;;;;;;18.20;71.30;;;;;;5051782;28;20007;-73
2021/07/31 07:27:57;;;;;;;;;;;18.30;71.30;;;;;;5052938;28;19935;-75
2021/07/31 07:30:23;;;;;;;;;;;18.30;71.30;;;;;;5050760;28;19932;-76
2021/07/31 07:32:51;;;;;;;;;;;18.30;71.20;;;;;;5051758;28;20311;-76
2021/07/31 07:35:17;;;;;;;;;;;18.40;71.10;;;;;;5051407;28;19995;-76
2021/07/31 07:37:43;;;;;;;;;;;18.50;71.30;;;;;;5051069;28;19925;-75
2021/07/31 07:40:10;;;;;;;;;;;18.50;70.90;;;;;;5051205;28;20011;-74
2021/07/31 07:42:40;;;;;;;;;;;18.50;70.60;;;;;;5052664;28;20004;-74
2021/07/31 07:45:07;;;;;;;;;;;18.60;70.60;;;;;;5052072;28;20399;-75
2021/07/31 07:47:34;;;;;;;;;;;18.60;70.50;;;;;;5051464;28;20023;-77
2021/07/31 07:50:00;;;;;;;;;;;18.60;70.40;;;;;;5051952;28;20414;-76
2021/07/31 07:52:26;;;;;;;;;;;18.70;70.30;;;;;;5051653;28;19931;-77
2021/07/31 07:54:52;;;;;;;;;;;18.70;70.30;;;;;;5051683;28;19968;-79
2021/07/31 07:57:19;;;;;;;;;;;18.70;70.30;;;;;;5051574;28;19932;-76
2021/07/31 07:59:45;;;;;;;;;;;18.70;70.10;;;;;;5051271;28;19998;-78
2021/07/31 08:02:11;;;;;;;;;;;18.70;70.00;;;;;;5032620;28;20431;-80
2021/07/31 08:04:37;;;;;;;;;;;18.80;70.00;;;;;;5051386;28;19969;-79
2021/07/31 08:07:05;;;;;;;;;;;18.80;69.90;;;;;;5051036;28;19975;-79
2021/07/31 08:09:31;;;;;;;;;;;18.90;69.80;;;;;;5050871;28;19968;-80
2021/07/31 08:11:57;;;;;;;;;;;18.90;69.70;;;;;;5051579;28;19925;-80
2021/07/31 08:14:23;;;;;;;;;;;18.90;69.50;;;;;;5033639;28;20018;-81
2021/07/31 08:16:49;;;;;;;;;;;19.00;69.40;;;;;;5054476;28;20374;-78
2021/07/31 08:19:15;;;;;;;;;;;19.00;69.30;;;;;;5055577;28;19928;-81
2021/07/31 08:21:42;;;;;;;;;;;19.00;69.30;;;;;;5054631;28;19967;-78
2021/07/31 08:24:08;;;;;;;;;;;19.00;69.20;;;;;;5055312;28;19925;-80
2021/07/31 08:26:34;;;;;;;;;;;19.10;69.20;;;;;;5054956;28;20422;-85
2021/07/31 08:29:00;;;;;;;;;;;19.10;69.20;;;;;;5055827;28;19983;-85
2021/07/31 08:31:26;;;;;;;;;;;19.20;69.10;;;;;;5055886;28;19937;-84
2021/07/31 08:33:52;;;;;;;;;;;19.20;69.10;;;;;;5055151;28;20075;-82
2021/07/31 08:36:18;;;;;;;;;;;19.30;68.70;;;;;;5054774;28;19999;-83
2021/07/31 08:38:44;;;;;;;;;;;19.40;68.00;;;;;;5037420;28;19924;-83
2021/07/31 08:41:13;;;;;;;;;;;19.50;67.90;;;;;;5055492;28;19929;-84
2021/07/31 08:43:39;;;;;;;;;;;19.60;67.60;;;;;;5037090;28;20067;-80
2021/07/31 08:46:06;;;;;;;;;;;19.60;67.60;;;;;;5054422;28;20383;-82
2021/07/31 08:48:32;;;;;;;;;;;19.70;67.40;;;;;;5054725;28;19951;-80
2021/07/31 08:51:00;;;;;;;;;;;19.90;66.80;;;;;;5054661;28;20050;-84
2021/07/31 08:53:30;;;;;;;;;;;20.00;66.10;;;;;;5035960;28;20277;-83
2021/07/31 08:55:57;;;;;;;;;;;20.10;65.20;;;;;;5051353;28;20312;-84
2021/07/31 08:58:23;;;;;;;;;;;20.40;65.10;;;;;;5054532;28;19932;-81
2021/07/31 09:00:50;;;;;;;;;;;21.10;64.80;;;;;;5053234;28;19932;-82
2021/07/31 09:03:17;;;;;;;;;;;21.80;63.60;;;;;;5053028;28;19987;-82
2021/07/31 09:05:43;;;;;;;;;;;22.60;61.50;;;;;;5053405;28;20066;-80
2021/07/31 09:08:10;;;;;;;;;;;23.20;59.60;;;;;;5053545;28;20407;-81
2021/07/31 09:10:37;;;;;;;;;;;23.60;56.90;;;;;;5053964;28;19925;-83
2021/07/31 09:13:05;;;;;;;;;;;23.90;55.40;;;;;;5053510;28;20026;-80
2021/07/31 09:15:38;;;;;;;;;;;24.30;54.70;;;;;;5054084;28;19968;-80
2021/07/31 09:18:23;;;;;;;;;;;24.50;52.20;;;;;;5054133;28;19932;-81
2021/07/31 09:21:12;;;;;;;;;;;24.70;52.50;;;;;;5049425;28;19925;-79
2021/07/31 09:23:44;;;;;;;;;;;25.00;52.30;;;;;;5032839;28;20019;-80
2021/07/31 09:26:21;;;;;;;;;;;25.20;50.20;;;;;;5015857;28;19925;-79
2021/07/31 09:29:04;;;;;;;;;;;25.40;49.20;;;;;;5034076;28;19957;-79
2021/07/31 09:31:31;;;;;;;;;;;25.60;48.20;;;;;;5034978;28;19925;-80
2021/07/31 09:33:59;;;;;;;;;;;25.50;47.00;;;;;;5034279;28;20000;-81
2021/07/31 09:36:41;;;;;;;;;;;25.40;46.60;;;;;;5022632;28;20022;-80
2021/07/31 09:39:09;;;;;;;;;;;25.30;44.70;;;;;;5033821;28;19968;-86
2021/07/31 09:41:39;;;;;;;;;;;25.20;45.00;;;;;;5031099;28;19968;-86
2021/07/31 09:44:14;;;;;;;;;;;24.90;42.30;;;;;;5033178;28;20030;-80
2021/07/31 09:46:50;;;;;;;;;;;24.60;43.90;;;;;;5033641;28;19989;-82
2021/07/31 09:49:18;;;;;;;;;;;24.10;46.10;;;;;;5031989;28;20376;-82
2021/07/31 09:51:44;;;;;;;;;;;23.70;45.80;;;;;;5032121;28;20622;-81
2021/07/31 09:54:11;;;;;;;;;;;23.30;47.40;;;;;;5033375;28;19929;-82
2021/07/31 09:56:38;;;;;;;;;;;23.10;48.80;;;;;;5048829;28;20407;-80
2021/07/31 09:59:05;;;;;;;;;;;23.00;49.80;;;;;;5035476;28;20355;-80
2021/07/31 10:01:34;;;;;;;;;;;22.90;49.80;;;;;;5042398;28;20393;-80
2021/07/31 10:04:01;;;;;;;;;;;22.80;50.20;;;;;;5035221;28;19979;-80
2021/07/31 10:06:27;;;;;;;;;;;22.80;51.20;;;;;;5033555;28;20003;-80
2021/07/31 10:08:54;;;;;;;;;;;22.70;51.40;;;;;;5033424;28;20424;-79
2021/07/31 10:11:20;;;;;;;;;;;22.70;51.50;;;;;;5032972;28;19928;-78
2021/07/31 10:13:47;;;;;;;;;;;22.60;50.20;;;;;;5032396;28;19925;-79
2021/07/31 10:16:13;;;;;;;;;;;22.40;51.00;;;;;;5031543;28;19986;-81
2021/07/31 10:18:53;;;;;;;;;;;22.10;52.00;;;;;;5033106;28;19968;-79
2021/07/31 10:21:19;;;;;;;;;;;21.80;52.90;;;;;;5042682;28;19967;-80
2021/07/31 10:24:04;;;;;;;;;;;21.50;54.90;;;;;;5041755;28;19925;-79
2021/07/31 10:26:31;;;;;;;;;;;21.40;55.10;;;;;;5023707;28;19948;-84
2021/07/31 10:29:16;;;;;;;;;;;21.20;55.90;;;;;;5033837;28;20424;-79
2021/07/31 10:31:42;;;;;;;;;;;21.20;56.80;;;;;;5034045;28;19929;-85
2021/07/31 10:34:08;;;;;;;;;;;21.20;57.10;;;;;;5033735;28;20024;-79
2021/07/31 10:36:36;;;;;;;;;;;21.30;57.10;;;;;;5036342;28;20432;-77
2021/07/31 10:39:20;;;;;;;;;;;21.30;56.90;;;;;;5033144;28;20431;-77
2021/07/31 10:41:59;;;;;;;;;;;21.30;56.80;;;;;;5032208;28;20392;-77
2021/07/31 10:44:26;;;;;;;;;;;21.40;57.20;;;;;;5014833;28;19954;-77
2021/07/31 10:47:11;;;;;;;;;;;21.40;57.10;;;;;;5039818;28;19939;-78
2021/07/31 10:49:37;;;;;;;;;;;21.50;56.80;;;;;;5039921;28;19925;-77
2021/07/31 10:52:04;;;;;;;;;;;21.50;56.00;;;;;;5032433;28;20015;-77
2021/07/31 10:54:49;;;;;;;;;;;21.50;55.00;;;;;;5035296;28;19925;-79
2021/07/31 10:57:15;;;;;;;;;;;21.50;54.60;;;;;;5050164;28;19932;-79
2021/07/31 10:59:41;;;;;;;;;;;21.40;54.20;;;;;;5046567;28;19933;-79
2021/07/31 11:02:26;;;;;;;;;;;21.40;54.50;;;;;;5042377;28;19925;-78
2021/07/31 11:04:55;;;;;;;;;;;21.40;54.60;;;;;;5028098;28;19948;-80
2021/07/31 11:07:25;;;;;;;;;;;21.40;54.40;;;;;;5050142;28;20409;-81
2021/07/31 11:10:24;;;;;;;;;;;21.40;54.60;;;;;;5025997;28;19925;-80
2021/07/31 11:12:50;;;;;;;;;;;21.60;55.00;;;;;;5019993;28;19925;-80
2021/07/31 11:15:18;;;;;;;;;;;22.00;55.10;;;;;;5044493;28;20143;-80
2021/07/31 11:17:53;;;;;;;;;;;22.40;54.40;;;;;;5047618;28;19963;-80
2021/07/31 11:20:24;;;;;;;;;;;22.70;53.30;;;;;;5033895;28;19929;-80
2021/07/31 11:22:51;;;;;;;;;;;23.00;52.20;;;;;;5048392;28;19964;-79
2021/07/31 11:25:18;;;;;;;;;;;23.30;51.40;;;;;;5033450;28;20019;-80
2021/07/31 11:28:10;;;;;;;;;;;23.40;51.10;;;;;;5039326;28;19925;-80
2021/07/31 11:30:37;;;;;;;;;;;23.40;50.70;;;;;;5025332;28;19933;-80
2021/07/31 11:33:17;;;;;;;;;;;23.30;50.20;;;;;;5052033;28;19979;-79
2021/07/31 11:35:43;;;;;;;;;;;23.10;50.60;;;;;;5046119;28;19944;-80
2021/07/31 11:38:28;;;;;;;;;;;23.00;51.10;;;;;;5052028;28;19925;-79
2021/07/31 11:40:56;;;;;;;;;;;22.90;51.00;;;;;;5052066;28;20004;-80
2021/07/31 11:43:23;;;;;;;;;;;22.80;51.30;;;;;;5052068;28;19964;-80
2021/07/31 11:45:49;;;;;;;;;;;22.80;51.50;;;;;;5051579;28;19971;-80
2021/07/31 11:48:15;;;;;;;;;;;22.70;51.70;;;;;;5051147;28;19932;-80
2021/07/31 11:51:00;;;;;;;;;;;22.70;51.60;;;;;;5052322;28;19924;-78
2021/07/31 11:53:26;;;;;;;;;;;22.70;51.90;;;;;;5040275;28;19974;-79
2021/07/31 11:56:07;;;;;;;;;;;22.80;51.30;;;;;;5026858;28;19932;-83
2021/07/31 11:58:34;;;;;;;;;;;22.90;51.40;;;;;;5040724;28;20011;-82
2021/07/31 12:01:00;;;;;;;;;;;23.10;51.80;;;;;;5039181;28;19932;-82
2021/07/31 12:03:45;;;;;;;;;;;23.20;51.60;;;;;;5048669;28;20024;-81
2021/07/31 12:06:30;;;;;;;;;;;23.30;50.30;;;;;;5029379;28;20396;-81
2021/07/31 12:08:59;;;;;;;;;;;23.20;50.40;;;;;;5035351;28;19940;-81
2021/07/31 12:11:32;;;;;;;;;;;23.00;51.00;;;;;;5040250;28;19925;-81
2021/07/31 12:13:58;;;;;;;;;;;22.90;51.50;;;;;;5026999;28;19964;-82
2021/07/31 12:16:27;;;;;;;;;;;22.60;52.20;;;;;;5043765;28;20003;-82
2021/07/31 12:18:54;;;;;;;;;;;22.40;52.60;;;;;;5039054;28;19968;-82
2021/07/31 12:21:24;;;;;;;;;;;22.30;53.10;;;;;;5043051;28;20337;-80
2021/07/31 12:23:50;;;;;;;;;;;22.20;53.30;;;;;;5047531;28;19936;-82
2021/07/31 12:26:37;;;;;;;;;;;22.00;53.00;;;;;;5051118;28;19925;-80
2021/07/31 12:29:03;;;;;;;;;;;22.00;53.00;;;;;;5060027;28;19924;-80
2021/07/31 12:31:30;;;;;;;;;;;21.90;53.10;;;;;;5051462;28;19932;-82
2021/07/31 12:33:57;;;;;;;;;;;21.90;53.70;;;;;;5051404;28;20019;-81
2021/07/31 12:36:23;;;;;;;;;;;21.80;53.50;;;;;;5048424;28;19929;-80
2021/07/31 12:38:51;;;;;;;;;;;21.80;53.90;;;;;;5051747;28;19968;-79
2021/07/31 12:41:22;;;;;;;;;;;21.80;53.90;;;;;;5051590;28;19968;-79
2021/07/31 12:43:48;;;;;;;;;;;21.80;53.40;;;;;;5051242;28;19971;-79
2021/07/31 12:46:14;;;;;;;;;;;21.80;52.40;;;;;;5028986;28;20403;-81
2021/07/31 12:48:41;;;;;;;;;;;21.90;51.90;;;;;;5051115;28;20411;-79
2021/07/31 12:51:07;;;;;;;;;;;21.80;51.30;;;;;;5051008;28;19932;-78
2021/07/31 12:53:34;;;;;;;;;;;21.90;51.70;;;;;;5046064;28;20502;-79
2021/07/31 12:56:00;;;;;;;;;;;22.00;51.70;;;;;;5051278;28;20009;-79
2021/07/31 12:58:26;;;;;;;;;;;22.00;51.10;;;;;;5046333;28;20297;-79
2021/07/31 13:00:52;;;;;;;;;;;22.10;52.00;;;;;;5051326;28;19929;-81
2021/07/31 13:03:19;;;;;;;;;;;22.10;51.80;;;;;;5053001;28;20429;-79
2021/07/31 13:05:45;;;;;;;;;;;22.20;51.70;;;;;;5050394;28;19932;-78
2021/07/31 13:08:11;;;;;;;;;;;22.30;51.60;;;;;;5052118;28;19924;-86
2021/07/31 13:10:45;;;;;;;;;;;22.40;50.90;;;;;;5053331;28;20074;-78
2021/07/31 13:13:12;;;;;;;;;;;22.40;50.10;;;;;;5048016;28;20002;-78
2021/07/31 13:15:39;;;;;;;;;;;22.40;49.10;;;;;;5054214;28;19956;-77
2021/07/31 13:18:06;;;;;;;;;;;22.50;48.80;;;;;;5047657;28;19932;-82
2021/07/31 13:20:35;;;;;;;;;;;22.50;48.50;;;;;;5030063;28;19934;-78
2021/07/31 13:23:01;;;;;;;;;;;22.60;48.30;;;;;;5034230;28;19925;-78
2021/07/31 13:25:28;;;;;;;;;;;22.70;48.40;;;;;;5034292;28;19979;-78
2021/07/31 13:27:54;;;;;;;;;;;22.70;48.10;;;;;;5034346;28;20396;-78
2021/07/31 13:30:20;;;;;;;;;;;22.70;48.10;;;;;;5034117;28;20059;-78
2021/07/31 13:32:46;;;;;;;;;;;22.90;47.70;;;;;;5034563;28;19925;-80
2021/07/31 13:35:12;;;;;;;;;;;22.90;46.80;;;;;;5031079;28;19926;-80
2021/07/31 13:37:48;;;;;;;;;;;22.90;46.30;;;;;;5025735;28;20004;-79
2021/07/31 13:40:24;;;;;;;;;;;22.90;46.40;;;;;;5024020;28;19976;-79
2021/07/31 13:42:51;;;;;;;;;;;22.90;46.70;;;;;;5034282;28;19932;-79
2021/07/31 13:45:18;;;;;;;;;;;23.10;46.60;;;;;;5033974;28;19925;-80
2021/07/31 13:47:44;;;;;;;;;;;23.10;46.10;;;;;;5030365;28;20408;-80
2021/07/31 13:50:11;;;;;;;;;;;23.20;46.20;;;;;;5033447;28;20320;-80
2021/07/31 13:52:38;;;;;;;;;;;23.20;46.50;;;;;;5031728;28;19929;-77
2021/07/31 13:55:04;;;;;;;;;;;23.10;49.00;;;;;;5031922;28;20010;-78
2021/07/31 13:57:31;;;;;;;;;;;23.00;50.70;;;;;;5025416;28;20012;-77
2021/07/31 13:59:59;;;;;;;;;;;22.80;52.10;;;;;;5032366;28;20460;-79
2021/07/31 14:02:25;;;;;;;;;;;22.70;54.80;;;;;;5033528;28;19925;-83
2021/07/31 14:04:52;;;;;;;;;;;22.50;52.80;;;;;;5033691;28;20408;-78
2021/07/31 14:07:18;;;;;;;;;;;22.20;52.60;;;;;;5033492;28;19929;-79
2021/07/31 14:09:46;;;;;;;;;;;22.10;53.50;;;;;;5033494;28;20484;-78
2021/07/31 14:12:12;;;;;;;;;;;21.90;54.10;;;;;;5033108;28;19936;-80
2021/07/31 14:14:38;;;;;;;;;;;21.90;56.00;;;;;;5033417;28;20300;-79
2021/07/31 14:17:05;;;;;;;;;;;22.00;55.40;;;;;;5033355;28;19932;-78
2021/07/31 14:19:31;;;;;;;;;;;22.00;55.60;;;;;;5033006;28;20004;-79